sensor_id;sensor_type;location;lat;lon;timestamp;P1;durP1;ratioP1;P2;durP2;ratioP2
79135;SDS011;68533;51.090;17.216;2023-04-01T00:00:11;4.15;;;2.72;;
79135;SDS011;68533;51.090;17.216;2023-04-01T00:03:00;5.68;;;2.53;;
79135;SDS011;68533;51.090;17.216;2023-04-01T00:05:43;4.75;;;3.30;;
79135;SDS011;68533;51.090;17.216;2023-04-01T00:08:35;7.60;;;4.10;;
79135;SDS011;68533;51.090;17.216;2023-04-01T00:11:18;4.88;;;2.67;;
79135;SDS011;68533;51.090;17.216;2023-04-01T00:13:44;6.65;;;3.75;;
79135;SDS011;68533;51.090;17.216;2023-04-01T00:16:27;6.38;;;3.78;;
79135;SDS011;68533;51.090;17.216;2023-04-01T00:19:04;8.52;;;4.35;;
79135;SDS011;68533;51.090;17.216;2023-04-01T00:21:32;6.18;;;4.18;;
79135;SDS011;68533;51.090;17.216;2023-04-01T00:24:21;6.80;;;5.07;;
79135;SDS011;68533;51.090;17.216;2023-04-01T00:27:07;5.57;;;4.63;;
79135;SDS011;68533;51.090;17.216;2023-04-01T00:29:43;7.47;;;4.70;;
79135;SDS011;68533;51.090;17.216;2023-04-01T00:32:18;7.43;;;4.53;;
79135;SDS011;68533;51.090;17.216;2023-04-01T00:34:44;7.45;;;4.80;;
79135;SDS011;68533;51.090;17.216;2023-04-01T00:37:10;7.32;;;4.80;;
79135;SDS011;68533;51.090;17.216;2023-04-01T00:39:37;6.13;;;4.10;;
79135;SDS011;68533;51.090;17.216;2023-04-01T00:42:03;8.05;;;4.28;;
79135;SDS011;68533;51.090;17.216;2023-04-01T00:44:32;7.05;;;5.25;;
79135;SDS011;68533;51.090;17.216;2023-04-01T00:47:10;10.57;;;5.45;;
79135;SDS011;68533;51.090;17.216;2023-04-01T00:49:45;10.15;;;6.00;;
79135;SDS011;68533;51.090;17.216;2023-04-01T00:52:20;10.63;;;5.78;;
79135;SDS011;68533;51.090;17.216;2023-04-01T00:54:54;10.30;;;5.10;;
79135;SDS011;68533;51.090;17.216;2023-04-01T00:57:46;11.05;;;5.85;;
79135;SDS011;68533;51.090;17.216;2023-04-01T01:03:00;8.57;;;5.78;;
79135;SDS011;68533;51.090;17.216;2023-04-01T01:05:37;9.32;;;5.72;;
79135;SDS011;68533;51.090;17.216;2023-04-01T01:17:35;9.23;;;5.82;;
79135;SDS011;68533;51.090;17.216;2023-04-01T01:20:42;10.18;;;5.28;;
79135;SDS011;68533;51.090;17.216;2023-04-01T01:23:29;8.70;;;5.90;;
79135;SDS011;68533;51.090;17.216;2023-04-01T01:26:17;9.40;;;5.53;;
79135;SDS011;68533;51.090;17.216;2023-04-01T01:29:01;12.18;;;7.75;;
79135;SDS011;68533;51.090;17.216;2023-04-01T01:31:58;10.60;;;6.63;;
79135;SDS011;68533;51.090;17.216;2023-04-01T01:38:13;12.85;;;7.18;;
79135;SDS011;68533;51.090;17.216;2023-04-01T01:41:27;12.63;;;6.85;;
79135;SDS011;68533;51.090;17.216;2023-04-01T01:44:06;10.13;;;6.80;;
79135;SDS011;68533;51.090;17.216;2023-04-01T01:46:37;13.57;;;6.88;;
79135;SDS011;68533;51.090;17.216;2023-04-01T01:49:23;12.57;;;7.38;;
79135;SDS011;68533;51.090;17.216;2023-04-01T01:52:03;11.98;;;6.75;;
79135;SDS011;68533;51.090;17.216;2023-04-01T01:54:47;12.77;;;6.28;;
79135;SDS011;68533;51.090;17.216;2023-04-01T01:57:55;16.50;;;8.02;;
79135;SDS011;68533;51.090;17.216;2023-04-01T02:01:08;12.02;;;6.97;;
79135;SDS011;68533;51.090;17.216;2023-04-01T02:03:39;10.57;;;7.18;;
79135;SDS011;68533;51.090;17.216;2023-04-01T02:06:15;11.05;;;7.75;;
79135;SDS011;68533;51.090;17.216;2023-04-01T02:09:00;13.95;;;7.35;;
79135;SDS011;68533;51.090;17.216;2023-04-01T02:12:12;11.20;;;7.13;;
79135;SDS011;68533;51.090;17.216;2023-04-01T02:14:41;10.65;;;7.00;;
79135;SDS011;68533;51.090;17.216;2023-04-01T02:17:43;11.85;;;7.53;;
79135;SDS011;68533;51.090;17.216;2023-04-01T02:20:30;17.48;;;8.55;;
79135;SDS011;68533;51.090;17.216;2023-04-01T02:23:35;17.63;;;8.85;;
79135;SDS011;68533;51.090;17.216;2023-04-01T02:26:08;13.20;;;7.38;;
79135;SDS011;68533;51.090;17.216;2023-04-01T02:29:08;10.15;;;6.55;;
79135;SDS011;68533;51.090;17.216;2023-04-01T02:31:48;10.68;;;6.97;;
79135;SDS011;68533;51.090;17.216;2023-04-01T02:34:21;11.32;;;6.55;;
79135;SDS011;68533;51.090;17.216;2023-04-01T02:36:58;10.88;;;7.28;;
79135;SDS011;68533;51.090;17.216;2023-04-01T02:39:29;11.73;;;7.38;;
79135;SDS011;68533;51.090;17.216;2023-04-01T02:42:55;9.75;;;6.38;;
79135;SDS011;68533;51.090;17.216;2023-04-01T02:45:26;11.30;;;6.88;;
79135;SDS011;68533;51.090;17.216;2023-04-01T02:48:17;11.00;;;6.90;;
79135;SDS011;68533;51.090;17.216;2023-04-01T02:53:12;10.98;;;6.40;;
79135;SDS011;68533;51.090;17.216;2023-04-01T02:55:40;10.48;;;6.22;;
79135;SDS011;68533;51.090;17.216;2023-04-01T02:58:14;10.02;;;6.88;;
79135;SDS011;68533;51.090;17.216;2023-04-01T03:00:42;10.80;;;6.57;;
79135;SDS011;68533;51.090;17.216;2023-04-01T03:06:26;9.10;;;5.45;;
79135;SDS011;68533;51.090;17.216;2023-04-01T03:08:54;8.95;;;5.70;;
79135;SDS011;68533;51.090;17.216;2023-04-01T03:12:11;8.10;;;5.72;;
79135;SDS011;68533;51.090;17.216;2023-04-01T03:14:41;9.38;;;5.57;;
79135;SDS011;68533;51.090;17.216;2023-04-01T03:17:08;10.20;;;5.05;;
79135;SDS011;68533;51.090;17.216;2023-04-01T03:19:59;8.60;;;5.78;;
79135;SDS011;68533;51.090;17.216;2023-04-01T03:22:58;10.02;;;5.65;;
79135;SDS011;68533;51.090;17.216;2023-04-01T03:26:01;7.78;;;5.45;;
79135;SDS011;68533;51.090;17.216;2023-04-01T03:28:51;7.53;;;5.07;;
79135;SDS011;68533;51.090;17.216;2023-04-01T03:31:52;7.40;;;4.82;;
79135;SDS011;68533;51.090;17.216;2023-04-01T03:34:27;8.23;;;4.88;;
79135;SDS011;68533;51.090;17.216;2023-04-01T03:37:15;7.93;;;4.43;;
79135;SDS011;68533;51.090;17.216;2023-04-01T03:40:17;6.53;;;4.55;;
79135;SDS011;68533;51.090;17.216;2023-04-01T03:42:43;8.43;;;4.40;;
79135;SDS011;68533;51.090;17.216;2023-04-01T03:45:10;11.55;;;5.30;;
79135;SDS011;68533;51.090;17.216;2023-04-01T03:47:37;6.45;;;5.28;;
79135;SDS011;68533;51.090;17.216;2023-04-01T03:50:04;10.45;;;4.78;;
79135;SDS011;68533;51.090;17.216;2023-04-01T03:52:33;8.05;;;5.03;;
79135;SDS011;68533;51.090;17.216;2023-04-01T03:55:00;11.70;;;5.05;;
79135;SDS011;68533;51.090;17.216;2023-04-01T03:57:26;5.95;;;4.82;;
79135;SDS011;68533;51.090;17.216;2023-04-01T04:02:27;8.27;;;4.50;;
79135;SDS011;68533;51.090;17.216;2023-04-01T04:05:28;10.13;;;5.03;;
79135;SDS011;68533;51.090;17.216;2023-04-01T04:08:22;6.95;;;3.90;;
79135;SDS011;68533;51.090;17.216;2023-04-01T04:10:53;10.73;;;4.53;;
79135;SDS011;68533;51.090;17.216;2023-04-01T04:13:24;10.63;;;6.07;;
79135;SDS011;68533;51.090;17.216;2023-04-01T04:15:50;7.35;;;4.78;;
79135;SDS011;68533;51.090;17.216;2023-04-01T04:18:17;10.70;;;6.20;;
79135;SDS011;68533;51.090;17.216;2023-04-01T04:20:59;10.80;;;5.78;;
79135;SDS011;68533;51.090;17.216;2023-04-01T04:23:43;8.18;;;5.20;;
79135;SDS011;68533;51.090;17.216;2023-04-01T04:26:11;7.70;;;4.72;;
79135;SDS011;68533;51.090;17.216;2023-04-01T04:28:38;12.38;;;5.60;;
79135;SDS011;68533;51.090;17.216;2023-04-01T04:31:05;11.50;;;5.78;;
79135;SDS011;68533;51.090;17.216;2023-04-01T04:33:32;11.27;;;5.93;;
79135;SDS011;68533;51.090;17.216;2023-04-01T04:35:59;13.23;;;6.18;;
79135;SDS011;68533;51.090;17.216;2023-04-01T04:38:25;10.48;;;5.05;;
79135;SDS011;68533;51.090;17.216;2023-04-01T04:40:56;12.45;;;6.53;;
79135;SDS011;68533;51.090;17.216;2023-04-01T04:43:22;12.50;;;7.68;;
79135;SDS011;68533;51.090;17.216;2023-04-01T04:45:49;18.77;;;6.03;;
79135;SDS011;68533;51.090;17.216;2023-04-01T04:48:15;13.55;;;7.38;;
79135;SDS011;68533;51.090;17.216;2023-04-01T04:50:44;14.57;;;6.07;;
79135;SDS011;68533;51.090;17.216;2023-04-01T04:53:19;11.90;;;6.25;;
79135;SDS011;68533;51.090;17.216;2023-04-01T04:55:46;11.63;;;5.97;;
79135;SDS011;68533;51.090;17.216;2023-04-01T04:58:17;11.68;;;6.15;;
79135;SDS011;68533;51.090;17.216;2023-04-01T05:00:43;12.07;;;5.82;;
79135;SDS011;68533;51.090;17.216;2023-04-01T05:03:11;14.70;;;6.40;;
79135;SDS011;68533;51.090;17.216;2023-04-01T05:05:38;8.20;;;5.13;;
79135;SDS011;68533;51.090;17.216;2023-04-01T05:08:05;8.35;;;4.97;;
79135;SDS011;68533;51.090;17.216;2023-04-01T05:10:34;8.93;;;5.20;;
79135;SDS011;68533;51.090;17.216;2023-04-01T05:13:03;7.55;;;4.57;;
79135;SDS011;68533;51.090;17.216;2023-04-01T05:15:29;10.98;;;4.70;;
79135;SDS011;68533;51.090;17.216;2023-04-01T05:17:55;6.72;;;3.95;;
79135;SDS011;68533;51.090;17.216;2023-04-01T05:20:22;7.43;;;4.15;;
79135;SDS011;68533;51.090;17.216;2023-04-01T05:22:48;6.63;;;3.20;;
79135;SDS011;68533;51.090;17.216;2023-04-01T05:25:14;7.53;;;4.13;;
79135;SDS011;68533;51.090;17.216;2023-04-01T05:27:40;7.63;;;4.38;;
79135;SDS011;68533;51.090;17.216;2023-04-01T05:30:06;8.90;;;4.10;;
79135;SDS011;68533;51.090;17.216;2023-04-01T05:32:32;8.98;;;4.38;;
79135;SDS011;68533;51.090;17.216;2023-04-01T05:35:02;12.27;;;5.22;;
79135;SDS011;68533;51.090;17.216;2023-04-01T05:37:31;7.85;;;4.07;;
79135;SDS011;68533;51.090;17.216;2023-04-01T05:40:00;9.98;;;5.68;;
79135;SDS011;68533;51.090;17.216;2023-04-01T05:42:27;8.23;;;4.40;;
79135;SDS011;68533;51.090;17.216;2023-04-01T05:44:53;9.65;;;5.28;;
79135;SDS011;68533;51.090;17.216;2023-04-01T05:47:24;9.35;;;5.10;;
79135;SDS011;68533;51.090;17.216;2023-04-01T05:49:50;8.35;;;5.15;;
79135;SDS011;68533;51.090;17.216;2023-04-01T05:52:20;8.48;;;4.88;;
79135;SDS011;68533;51.090;17.216;2023-04-01T05:54:46;7.35;;;4.50;;
79135;SDS011;68533;51.090;17.216;2023-04-01T05:57:12;10.68;;;5.15;;
79135;SDS011;68533;51.090;17.216;2023-04-01T05:59:41;7.30;;;4.53;;
79135;SDS011;68533;51.090;17.216;2023-04-01T06:02:08;8.93;;;4.78;;
79135;SDS011;68533;51.090;17.216;2023-04-01T06:04:54;10.45;;;5.53;;
79135;SDS011;68533;51.090;17.216;2023-04-01T06:07:55;7.72;;;4.65;;
79135;SDS011;68533;51.090;17.216;2023-04-01T06:10:32;7.70;;;5.47;;
79135;SDS011;68533;51.090;17.216;2023-04-01T06:21:49;11.57;;;6.38;;
79135;SDS011;68533;51.090;17.216;2023-04-01T06:24:41;12.25;;;7.25;;
79135;SDS011;68533;51.090;17.216;2023-04-01T06:38:59;10.95;;;7.57;;
79135;SDS011;68533;51.090;17.216;2023-04-01T06:42:04;7.93;;;4.70;;
79135;SDS011;68533;51.090;17.216;2023-04-01T06:44:40;9.48;;;4.93;;
79135;SDS011;68533;51.090;17.216;2023-04-01T06:50:26;6.50;;;4.35;;
79135;SDS011;68533;51.090;17.216;2023-04-01T06:53:27;6.78;;;3.95;;
79135;SDS011;68533;51.090;17.216;2023-04-01T06:56:05;5.72;;;3.47;;
79135;SDS011;68533;51.090;17.216;2023-04-01T06:58:39;8.05;;;4.82;;
79135;SDS011;68533;51.090;17.216;2023-04-01T07:01:17;7.82;;;5.45;;
79135;SDS011;68533;51.090;17.216;2023-04-01T07:03:50;7.55;;;4.18;;
79135;SDS011;68533;51.090;17.216;2023-04-01T07:06:36;9.02;;;4.72;;
79135;SDS011;68533;51.090;17.216;2023-04-01T07:09:16;9.07;;;4.63;;
79135;SDS011;68533;51.090;17.216;2023-04-01T07:11:47;9.10;;;4.63;;
79135;SDS011;68533;51.090;17.216;2023-04-01T07:14:20;6.57;;;4.18;;
79135;SDS011;68533;51.090;17.216;2023-04-01T07:16:56;6.95;;;4.03;;
79135;SDS011;68533;51.090;17.216;2023-04-01T07:19:42;10.35;;;5.03;;
79135;SDS011;68533;51.090;17.216;2023-04-01T07:25:17;8.63;;;4.80;;
79135;SDS011;68533;51.090;17.216;2023-04-01T07:27:48;7.75;;;3.80;;
79135;SDS011;68533;51.090;17.216;2023-04-01T07:38:07;8.20;;;5.65;;
79135;SDS011;68533;51.090;17.216;2023-04-01T07:43:55;6.82;;;3.70;;
79135;SDS011;68533;51.090;17.216;2023-04-01T07:52:12;7.40;;;4.07;;
79135;SDS011;68533;51.090;17.216;2023-04-01T08:03:38;5.65;;;3.95;;
79135;SDS011;68533;51.090;17.216;2023-04-01T08:06:32;6.57;;;3.83;;
79135;SDS011;68533;51.090;17.216;2023-04-01T08:15:23;8.70;;;4.63;;
79135;SDS011;68533;51.090;17.216;2023-04-01T08:18:03;6.68;;;4.18;;
79135;SDS011;68533;51.090;17.216;2023-04-01T08:25:40;7.72;;;4.13;;
79135;SDS011;68533;51.090;17.216;2023-04-01T08:28:27;6.10;;;4.07;;
79135;SDS011;68533;51.090;17.216;2023-04-01T08:31:11;7.22;;;3.72;;
79135;SDS011;68533;51.090;17.216;2023-04-01T08:33:44;5.35;;;2.85;;
79135;SDS011;68533;51.090;17.216;2023-04-01T08:36:24;5.70;;;3.92;;
79135;SDS011;68533;51.090;17.216;2023-04-01T08:39:03;9.35;;;4.63;;
79135;SDS011;68533;51.090;17.216;2023-04-01T08:53:43;7.32;;;3.45;;
79135;SDS011;68533;51.090;17.216;2023-04-01T08:56:29;6.57;;;4.20;;
79135;SDS011;68533;51.090;17.216;2023-04-01T09:18:59;5.88;;;2.97;;
79135;SDS011;68533;51.090;17.216;2023-04-01T09:35:21;2.58;;;2.30;;
79135;SDS011;68533;51.090;17.216;2023-04-01T09:40:56;5.38;;;3.13;;
79135;SDS011;68533;51.090;17.216;2023-04-01T09:49:43;4.35;;;2.80;;
79135;SDS011;68533;51.090;17.216;2023-04-01T10:12:29;6.03;;;3.20;;
79135;SDS011;68533;51.090;17.216;2023-04-01T10:24:27;7.25;;;3.67;;
79135;SDS011;68533;51.090;17.216;2023-04-01T10:27:20;2.00;;;1.70;;
79135;SDS011;68533;51.090;17.216;2023-04-01T10:30:18;1.80;;;1.20;;
79135;SDS011;68533;51.090;17.216;2023-04-01T10:47:34;1.08;;;0.60;;
79135;SDS011;68533;51.090;17.216;2023-04-01T11:07:27;3.47;;;2.10;;
79135;SDS011;68533;51.090;17.216;2023-04-01T11:13:14;2.13;;;1.73;;
79135;SDS011;68533;51.090;17.216;2023-04-01T11:33:46;4.72;;;1.65;;
79135;SDS011;68533;51.090;17.216;2023-04-01T11:44:19;1.50;;;1.27;;
79135;SDS011;68533;51.090;17.216;2023-04-01T12:06:02;1.95;;;1.25;;
79135;SDS011;68533;51.090;17.216;2023-04-01T12:12:38;1.95;;;0.98;;
79135;SDS011;68533;51.090;17.216;2023-04-01T12:14:39;0.80;;;0.52;;
79135;SDS011;68533;51.090;17.216;2023-04-01T12:28:35;1.95;;;1.15;;
79135;SDS011;68533;51.090;17.216;2023-04-01T12:56:03;2.53;;;1.20;;
79135;SDS011;68533;51.090;17.216;2023-04-01T12:58:49;1.63;;;1.23;;
79135;SDS011;68533;51.090;17.216;2023-04-01T13:06:49;2.25;;;1.33;;
79135;SDS011;68533;51.090;17.216;2023-04-01T13:09:41;1.98;;;1.52;;
79135;SDS011;68533;51.090;17.216;2023-04-01T13:22:45;0.98;;;0.63;;
79135;SDS011;68533;51.090;17.216;2023-04-01T13:29:31;1.58;;;0.85;;
79135;SDS011;68533;51.090;17.216;2023-04-01T13:42:24;2.67;;;1.35;;
79135;SDS011;68533;51.090;17.216;2023-04-01T13:45:09;1.33;;;0.70;;
79135;SDS011;68533;51.090;17.216;2023-04-01T13:50:16;2.95;;;1.20;;
79135;SDS011;68533;51.090;17.216;2023-04-01T13:56:16;2.78;;;1.40;;
79135;SDS011;68533;51.090;17.216;2023-04-01T14:04:12;3.35;;;2.03;;
79135;SDS011;68533;51.090;17.216;2023-04-01T14:10:31;4.10;;;2.28;;
79135;SDS011;68533;51.090;17.216;2023-04-01T14:16:40;2.45;;;1.58;;
79135;SDS011;68533;51.090;17.216;2023-04-01T14:21:33;6.47;;;2.33;;
79135;SDS011;68533;51.090;17.216;2023-04-01T14:35:12;1.75;;;1.25;;
79135;SDS011;68533;51.090;17.216;2023-04-01T14:37:48;2.92;;;1.25;;
79135;SDS011;68533;51.090;17.216;2023-04-01T14:51:48;3.28;;;1.83;;
79135;SDS011;68533;51.090;17.216;2023-04-01T14:54:30;2.72;;;1.60;;
79135;SDS011;68533;51.090;17.216;2023-04-01T14:59:39;2.65;;;1.40;;
79135;SDS011;68533;51.090;17.216;2023-04-01T15:02:14;2.17;;;1.27;;
79135;SDS011;68533;51.090;17.216;2023-04-01T15:08:26;3.90;;;1.48;;
79135;SDS011;68533;51.090;17.216;2023-04-01T15:10:49;3.00;;;1.52;;
79135;SDS011;68533;51.090;17.216;2023-04-01T15:21:38;6.10;;;3.03;;
79135;SDS011;68533;51.090;17.216;2023-04-01T15:38:37;11.82;;;5.05;;
79135;SDS011;68533;51.090;17.216;2023-04-01T15:41:23;94.85;;;13.45;;
79135;SDS011;68533;51.090;17.216;2023-04-01T15:44:01;6.93;;;4.10;;
79135;SDS011;68533;51.090;17.216;2023-04-01T15:49:37;10.38;;;5.40;;
79135;SDS011;68533;51.090;17.216;2023-04-01T15:55:13;9.82;;;5.28;;
79135;SDS011;68533;51.090;17.216;2023-04-01T16:04:05;18.65;;;11.95;;
79135;SDS011;68533;51.090;17.216;2023-04-01T16:07:12;10.80;;;6.68;;
79135;SDS011;68533;51.090;17.216;2023-04-01T16:09:56;16.52;;;8.90;;
79135;SDS011;68533;51.090;17.216;2023-04-01T16:20:43;13.25;;;8.15;;
79135;SDS011;68533;51.090;17.216;2023-04-01T16:26:13;16.08;;;8.70;;
79135;SDS011;68533;51.090;17.216;2023-04-01T16:34:14;18.08;;;10.05;;
79135;SDS011;68533;51.090;17.216;2023-04-01T16:36:49;15.90;;;9.35;;
79135;SDS011;68533;51.090;17.216;2023-04-01T16:42:16;21.05;;;11.35;;
79135;SDS011;68533;51.090;17.216;2023-04-01T16:56:06;15.90;;;9.50;;
79135;SDS011;68533;51.090;17.216;2023-04-01T17:01:49;17.08;;;10.80;;
79135;SDS011;68533;51.090;17.216;2023-04-01T17:04:08;23.17;;;13.70;;
79135;SDS011;68533;51.090;17.216;2023-04-01T17:10:16;15.32;;;10.43;;
79135;SDS011;68533;51.090;17.216;2023-04-01T17:12:28;15.32;;;10.02;;
79135;SDS011;68533;51.090;17.216;2023-04-01T17:18:01;20.30;;;10.15;;
79135;SDS011;68533;51.090;17.216;2023-04-01T17:23:38;17.60;;;10.40;;
79135;SDS011;68533;51.090;17.216;2023-04-01T17:36:56;23.70;;;13.15;;
79135;SDS011;68533;51.090;17.216;2023-04-01T17:42:31;24.60;;;13.23;;
79135;SDS011;68533;51.090;17.216;2023-04-01T17:56:49;31.60;;;15.85;;
79135;SDS011;68533;51.090;17.216;2023-04-01T17:59:44;30.80;;;16.10;;
79135;SDS011;68533;51.090;17.216;2023-04-01T18:02:33;33.67;;;16.85;;
79135;SDS011;68533;51.090;17.216;2023-04-01T18:22:06;41.35;;;19.80;;
79135;SDS011;68533;51.090;17.216;2023-04-01T18:24:35;39.08;;;17.90;;
79135;SDS011;68533;51.090;17.216;2023-04-01T18:27:22;34.47;;;18.83;;
79135;SDS011;68533;51.090;17.216;2023-04-01T18:29:58;35.33;;;16.92;;
79135;SDS011;68533;51.090;17.216;2023-04-01T18:38:11;34.35;;;17.33;;
79135;SDS011;68533;51.090;17.216;2023-04-01T18:41:01;33.47;;;15.95;;
79135;SDS011;68533;51.090;17.216;2023-04-01T18:43:38;31.13;;;16.70;;
79135;SDS011;68533;51.090;17.216;2023-04-01T18:46:26;36.75;;;17.98;;
79135;SDS011;68533;51.090;17.216;2023-04-01T18:49:16;38.58;;;17.17;;
79135;SDS011;68533;51.090;17.216;2023-04-01T18:57:49;39.92;;;20.20;;
79135;SDS011;68533;51.090;17.216;2023-04-01T19:00:20;43.72;;;20.85;;
79135;SDS011;68533;51.090;17.216;2023-04-01T19:16:38;50.25;;;23.90;;
79135;SDS011;68533;51.090;17.216;2023-04-01T19:19:29;48.60;;;23.20;;
79135;SDS011;68533;51.090;17.216;2023-04-01T19:22:38;48.50;;;21.85;;
79135;SDS011;68533;51.090;17.216;2023-04-01T19:30:57;51.08;;;23.88;;
79135;SDS011;68533;51.090;17.216;2023-04-01T19:36:16;46.55;;;22.13;;
79135;SDS011;68533;51.090;17.216;2023-04-01T19:41:43;44.17;;;19.23;;
79135;SDS011;68533;51.090;17.216;2023-04-01T19:46:48;50.17;;;22.05;;
79135;SDS011;68533;51.090;17.216;2023-04-01T19:49:51;51.83;;;24.17;;
79135;SDS011;68533;51.090;17.216;2023-04-01T19:52:33;44.90;;;22.00;;
79135;SDS011;68533;51.090;17.216;2023-04-01T19:55:13;53.53;;;22.83;;
79135;SDS011;68533;51.090;17.216;2023-04-01T19:58:09;53.38;;;22.00;;
79135;SDS011;68533;51.090;17.216;2023-04-01T20:00:53;49.85;;;21.75;;
79135;SDS011;68533;51.090;17.216;2023-04-01T20:06:44;46.75;;;20.48;;
79135;SDS011;68533;51.090;17.216;2023-04-01T20:19:59;48.30;;;20.65;;
79135;SDS011;68533;51.090;17.216;2023-04-01T20:41:27;46.38;;;20.15;;
79135;SDS011;68533;51.090;17.216;2023-04-01T20:44:10;49.30;;;22.48;;
79135;SDS011;68533;51.090;17.216;2023-04-01T20:46:48;46.03;;;23.30;;
79135;SDS011;68533;51.090;17.216;2023-04-01T20:52:32;47.75;;;21.40;;
79135;SDS011;68533;51.090;17.216;2023-04-01T21:16:15;52.90;;;23.45;;
79135;SDS011;68533;51.090;17.216;2023-04-01T21:29:55;57.42;;;25.17;;
79135;SDS011;68533;51.090;17.216;2023-04-01T21:45:44;57.63;;;25.92;;
79135;SDS011;68533;51.090;17.216;2023-04-01T21:48:37;60.70;;;25.23;;
79135;SDS011;68533;51.090;17.216;2023-04-01T21:59:45;51.33;;;24.33;;
79135;SDS011;68533;51.090;17.216;2023-04-01T22:08:33;61.05;;;24.67;;
79135;SDS011;68533;51.090;17.216;2023-04-01T22:11:42;70.30;;;29.30;;
79135;SDS011;68533;51.090;17.216;2023-04-01T22:14:40;54.20;;;25.85;;
79135;SDS011;68533;51.090;17.216;2023-04-01T22:25:29;55.33;;;25.38;;
79135;SDS011;68533;51.090;17.216;2023-04-01T22:28:16;54.50;;;23.70;;
79135;SDS011;68533;51.090;17.216;2023-04-01T22:44:09;55.05;;;25.75;;
79135;SDS011;68533;51.090;17.216;2023-04-01T22:49:36;59.83;;;30.73;;
79135;SDS011;68533;51.090;17.216;2023-04-01T22:55:21;40.35;;;19.33;;
79135;SDS011;68533;51.090;17.216;2023-04-01T22:57:57;45.95;;;20.92;;
79135;SDS011;68533;51.090;17.216;2023-04-01T23:00:33;38.03;;;21.38;;
79135;SDS011;68533;51.090;17.216;2023-04-01T23:08:32;44.88;;;23.55;;
79135;SDS011;68533;51.090;17.216;2023-04-01T23:11:30;40.55;;;18.63;;
79135;SDS011;68533;51.090;17.216;2023-04-01T23:17:00;40.08;;;20.50;;
79135;SDS011;68533;51.090;17.216;2023-04-01T23:22:31;37.85;;;17.35;;
79135;SDS011;68533;51.090;17.216;2023-04-01T23:25:18;37.60;;;19.42;;
79135;SDS011;68533;51.090;17.216;2023-04-01T23:33:27;33.45;;;17.55;;
79135;SDS011;68533;51.090;17.216;2023-04-01T23:36:02;31.00;;;16.05;;
79135;SDS011;68533;51.090;17.216;2023-04-01T23:38:41;27.75;;;13.85;;
79135;SDS011;68533;51.090;17.216;2023-04-01T23:41:19;25.25;;;13.82;;
79135;SDS011;68533;51.090;17.216;2023-04-01T23:43:58;20.98;;;12.30;;
79135;SDS011;68533;51.090;17.216;2023-04-01T23:46:30;21.50;;;12.38;;
79135;SDS011;68533;51.090;17.216;2023-04-01T23:49:00;21.52;;;12.63;;
79135;SDS011;68533;51.090;17.216;2023-04-01T23:51:29;25.80;;;12.75;;
79135;SDS011;68533;51.090;17.216;2023-04-01T23:54:15;22.92;;;12.13;;
79135;SDS011;68533;51.090;17.216;2023-04-01T23:56:48;23.13;;;11.80;;
79135;SDS011;68533;51.090;17.216;2023-04-01T23:59:23;24.90;;;12.85;;
